sensor_id;sensor_type;location;lat;lon;timestamp;P1;durP1;ratioP1;P2;durP2;ratioP2
2191;SDS011;1102;49.718;11.902;2022-11-30T00:01:12;23.13;;;15.80;;
2191;SDS011;1102;49.718;11.902;2022-11-30T00:03:44;28.80;;;17.20;;
2191;SDS011;1102;49.718;11.902;2022-11-30T00:06:12;27.70;;;15.80;;
2191;SDS011;1102;49.718;11.902;2022-11-30T00:08:40;23.57;;;15.90;;
2191;SDS011;1102;49.718;11.902;2022-11-30T00:11:08;28.43;;;17.80;;
2191;SDS011;1102;49.718;11.902;2022-11-30T00:13:34;29.07;;;17.70;;
2191;SDS011;1102;49.718;11.902;2022-11-30T00:16:01;26.23;;;16.87;;
2191;SDS011;1102;49.718;11.902;2022-11-30T00:18:28;26.53;;;17.87;;
2191;SDS011;1102;49.718;11.902;2022-11-30T00:20:57;27.40;;;16.03;;
2191;SDS011;1102;49.718;11.902;2022-11-30T00:23:25;24.30;;;16.40;;
2191;SDS011;1102;49.718;11.902;2022-11-30T00:25:52;26.17;;;16.40;;
2191;SDS011;1102;49.718;11.902;2022-11-30T00:28:18;24.17;;;17.80;;
2191;SDS011;1102;49.718;11.902;2022-11-30T00:30:45;29.50;;;17.17;;
2191;SDS011;1102;49.718;11.902;2022-11-30T00:33:22;25.53;;;16.87;;
2191;SDS011;1102;49.718;11.902;2022-11-30T00:35:58;24.17;;;16.20;;
2191;SDS011;1102;49.718;11.902;2022-11-30T00:38:26;27.43;;;17.47;;
2191;SDS011;1102;49.718;11.902;2022-11-30T00:40:53;24.60;;;17.60;;
2191;SDS011;1102;49.718;11.902;2022-11-30T00:43:20;25.63;;;17.10;;
2191;SDS011;1102;49.718;11.902;2022-11-30T00:45:46;26.07;;;17.47;;
2191;SDS011;1102;49.718;11.902;2022-11-30T00:48:13;23.20;;;16.20;;
2191;SDS011;1102;49.718;11.902;2022-11-30T00:50:40;25.27;;;15.80;;
2191;SDS011;1102;49.718;11.902;2022-11-30T00:53:07;25.20;;;17.50;;
2191;SDS011;1102;49.718;11.902;2022-11-30T00:55:33;28.70;;;17.60;;
2191;SDS011;1102;49.718;11.902;2022-11-30T00:58:00;30.83;;;17.07;;
2191;SDS011;1102;49.718;11.902;2022-11-30T01:00:27;27.77;;;18.63;;
2191;SDS011;1102;49.718;11.902;2022-11-30T01:02:55;28.53;;;18.20;;
2191;SDS011;1102;49.718;11.902;2022-11-30T01:05:23;28.00;;;17.27;;
2191;SDS011;1102;49.718;11.902;2022-11-30T01:07:50;22.93;;;16.47;;
2191;SDS011;1102;49.718;11.902;2022-11-30T01:10:17;29.33;;;18.37;;
2191;SDS011;1102;49.718;11.902;2022-11-30T01:12:44;27.40;;;16.97;;
2191;SDS011;1102;49.718;11.902;2022-11-30T01:15:11;26.40;;;16.37;;
2191;SDS011;1102;49.718;11.902;2022-11-30T01:17:37;24.07;;;16.50;;
2191;SDS011;1102;49.718;11.902;2022-11-30T01:20:04;23.80;;;16.83;;
2191;SDS011;1102;49.718;11.902;2022-11-30T01:22:33;28.23;;;17.27;;
2191;SDS011;1102;49.718;11.902;2022-11-30T01:25:01;27.07;;;17.83;;
2191;SDS011;1102;49.718;11.902;2022-11-30T01:27:27;29.80;;;18.00;;
2191;SDS011;1102;49.718;11.902;2022-11-30T01:29:54;27.10;;;15.43;;
2191;SDS011;1102;49.718;11.902;2022-11-30T01:32:21;28.47;;;17.53;;
2191;SDS011;1102;49.718;11.902;2022-11-30T01:34:48;31.23;;;19.47;;
2191;SDS011;1102;49.718;11.902;2022-11-30T01:37:14;27.93;;;18.80;;
2191;SDS011;1102;49.718;11.902;2022-11-30T01:39:41;23.90;;;17.40;;
2191;SDS011;1102;49.718;11.902;2022-11-30T01:42:15;27.60;;;18.40;;
2191;SDS011;1102;49.718;11.902;2022-11-30T01:44:48;33.63;;;19.33;;
2191;SDS011;1102;49.718;11.902;2022-11-30T01:47:33;31.40;;;19.53;;
2191;SDS011;1102;49.718;11.902;2022-11-30T01:50:15;33.37;;;20.10;;
2191;SDS011;1102;49.718;11.902;2022-11-30T01:52:52;25.47;;;17.13;;
2191;SDS011;1102;49.718;11.902;2022-11-30T01:58:14;25.90;;;20.27;;
2191;SDS011;1102;49.718;11.902;2022-11-30T02:00:45;28.87;;;18.00;;
2191;SDS011;1102;49.718;11.902;2022-11-30T02:03:18;26.37;;;16.50;;
2191;SDS011;1102;49.718;11.902;2022-11-30T02:06:01;29.43;;;18.00;;
2191;SDS011;1102;49.718;11.902;2022-11-30T02:08:28;28.43;;;18.43;;
2191;SDS011;1102;49.718;11.902;2022-11-30T02:11:02;27.93;;;17.63;;
2191;SDS011;1102;49.718;11.902;2022-11-30T02:16:22;23.20;;;16.73;;
2191;SDS011;1102;49.718;11.902;2022-11-30T02:21:50;26.33;;;16.83;;
2191;SDS011;1102;49.718;11.902;2022-11-30T02:29:59;32.63;;;17.10;;
2191;SDS011;1102;49.718;11.902;2022-11-30T02:32:28;26.27;;;18.10;;
2191;SDS011;1102;49.718;11.902;2022-11-30T02:35:00;25.77;;;18.50;;
2191;SDS011;1102;49.718;11.902;2022-11-30T02:37:29;26.97;;;17.67;;
2191;SDS011;1102;49.718;11.902;2022-11-30T02:39:59;31.73;;;18.87;;
2191;SDS011;1102;49.718;11.902;2022-11-30T02:42:25;34.67;;;20.57;;
2191;SDS011;1102;49.718;11.902;2022-11-30T02:44:52;34.73;;;19.20;;
2191;SDS011;1102;49.718;11.902;2022-11-30T02:50:13;37.83;;;18.60;;
2191;SDS011;1102;49.718;11.902;2022-11-30T02:52:43;26.50;;;16.50;;
2191;SDS011;1102;49.718;11.902;2022-11-30T02:55:10;31.63;;;18.60;;
2191;SDS011;1102;49.718;11.902;2022-11-30T02:57:41;31.17;;;18.23;;
2191;SDS011;1102;49.718;11.902;2022-11-30T03:00:09;28.23;;;19.17;;
2191;SDS011;1102;49.718;11.902;2022-11-30T03:02:38;32.53;;;19.17;;
2191;SDS011;1102;49.718;11.902;2022-11-30T03:05:05;25.57;;;17.63;;
2191;SDS011;1102;49.718;11.902;2022-11-30T03:07:33;34.30;;;20.50;;
2191;SDS011;1102;49.718;11.902;2022-11-30T03:10:00;27.70;;;19.23;;
2191;SDS011;1102;49.718;11.902;2022-11-30T03:12:27;32.93;;;19.87;;
2191;SDS011;1102;49.718;11.902;2022-11-30T03:14:54;28.20;;;17.47;;
2191;SDS011;1102;49.718;11.902;2022-11-30T03:17:21;36.83;;;19.60;;
2191;SDS011;1102;49.718;11.902;2022-11-30T03:19:47;31.20;;;17.70;;
2191;SDS011;1102;49.718;11.902;2022-11-30T03:22:14;28.43;;;17.70;;
2191;SDS011;1102;49.718;11.902;2022-11-30T03:24:41;35.13;;;18.13;;
2191;SDS011;1102;49.718;11.902;2022-11-30T03:27:07;31.23;;;18.80;;
2191;SDS011;1102;49.718;11.902;2022-11-30T03:29:34;34.83;;;20.20;;
2191;SDS011;1102;49.718;11.902;2022-11-30T03:32:01;35.37;;;18.07;;
2191;SDS011;1102;49.718;11.902;2022-11-30T03:34:27;31.50;;;19.40;;
2191;SDS011;1102;49.718;11.902;2022-11-30T03:36:54;26.07;;;18.20;;
2191;SDS011;1102;49.718;11.902;2022-11-30T03:39:21;28.97;;;19.10;;
2191;SDS011;1102;49.718;11.902;2022-11-30T03:41:49;33.00;;;18.40;;
2191;SDS011;1102;49.718;11.902;2022-11-30T03:44:15;27.40;;;17.10;;
2191;SDS011;1102;49.718;11.902;2022-11-30T03:46:43;26.53;;;18.43;;
2191;SDS011;1102;49.718;11.902;2022-11-30T03:49:09;32.03;;;20.73;;
2191;SDS011;1102;49.718;11.902;2022-11-30T03:51:36;27.30;;;18.93;;
2191;SDS011;1102;49.718;11.902;2022-11-30T03:54:03;32.10;;;16.97;;
2191;SDS011;1102;49.718;11.902;2022-11-30T03:56:29;26.53;;;17.93;;
2191;SDS011;1102;49.718;11.902;2022-11-30T03:58:56;25.73;;;15.63;;
2191;SDS011;1102;49.718;11.902;2022-11-30T04:01:23;32.07;;;17.83;;
2191;SDS011;1102;49.718;11.902;2022-11-30T04:03:50;33.47;;;20.70;;
2191;SDS011;1102;49.718;11.902;2022-11-30T04:06:17;32.20;;;20.73;;
2191;SDS011;1102;49.718;11.902;2022-11-30T04:08:45;28.47;;;18.03;;
2191;SDS011;1102;49.718;11.902;2022-11-30T04:11:12;40.50;;;20.00;;
2191;SDS011;1102;49.718;11.902;2022-11-30T04:13:39;36.83;;;19.73;;
2191;SDS011;1102;49.718;11.902;2022-11-30T04:16:06;36.27;;;23.20;;
2191;SDS011;1102;49.718;11.902;2022-11-30T04:18:34;35.17;;;22.17;;
2191;SDS011;1102;49.718;11.902;2022-11-30T04:21:02;39.70;;;22.33;;
2191;SDS011;1102;49.718;11.902;2022-11-30T04:23:30;35.77;;;20.90;;
2191;SDS011;1102;49.718;11.902;2022-11-30T04:26:01;32.00;;;20.40;;
2191;SDS011;1102;49.718;11.902;2022-11-30T04:28:29;40.13;;;24.10;;
2191;SDS011;1102;49.718;11.902;2022-11-30T04:30:55;45.43;;;23.10;;
2191;SDS011;1102;49.718;11.902;2022-11-30T04:33:22;41.43;;;23.30;;
2191;SDS011;1102;49.718;11.902;2022-11-30T04:35:49;36.43;;;21.07;;
2191;SDS011;1102;49.718;11.902;2022-11-30T04:38:19;47.33;;;22.90;;
2191;SDS011;1102;49.718;11.902;2022-11-30T04:40:46;46.23;;;23.30;;
2191;SDS011;1102;49.718;11.902;2022-11-30T04:43:12;43.40;;;23.23;;
2191;SDS011;1102;49.718;11.902;2022-11-30T04:45:39;35.90;;;22.13;;
2191;SDS011;1102;49.718;11.902;2022-11-30T04:48:06;33.23;;;20.57;;
2191;SDS011;1102;49.718;11.902;2022-11-30T04:50:33;37.27;;;21.83;;
2191;SDS011;1102;49.718;11.902;2022-11-30T04:53:00;38.30;;;21.47;;
2191;SDS011;1102;49.718;11.902;2022-11-30T04:55:27;37.13;;;21.90;;
2191;SDS011;1102;49.718;11.902;2022-11-30T04:57:54;35.10;;;19.70;;
2191;SDS011;1102;49.718;11.902;2022-11-30T05:00:21;30.40;;;21.80;;
2191;SDS011;1102;49.718;11.902;2022-11-30T05:02:47;39.50;;;22.20;;
2191;SDS011;1102;49.718;11.902;2022-11-30T05:05:18;36.80;;;22.07;;
2191;SDS011;1102;49.718;11.902;2022-11-30T05:07:48;31.57;;;19.67;;
2191;SDS011;1102;49.718;11.902;2022-11-30T05:10:16;39.73;;;21.87;;
2191;SDS011;1102;49.718;11.902;2022-11-30T05:12:42;46.03;;;26.03;;
2191;SDS011;1102;49.718;11.902;2022-11-30T05:15:09;35.27;;;23.90;;
2191;SDS011;1102;49.718;11.902;2022-11-30T05:17:36;40.40;;;24.10;;
2191;SDS011;1102;49.718;11.902;2022-11-30T05:20:03;39.60;;;24.60;;
2191;SDS011;1102;49.718;11.902;2022-11-30T05:22:30;40.07;;;25.17;;
2191;SDS011;1102;49.718;11.902;2022-11-30T05:24:57;42.00;;;24.03;;
2191;SDS011;1102;49.718;11.902;2022-11-30T05:27:23;38.00;;;23.10;;
2191;SDS011;1102;49.718;11.902;2022-11-30T05:29:50;39.17;;;23.17;;
2191;SDS011;1102;49.718;11.902;2022-11-30T05:32:17;32.70;;;20.40;;
2191;SDS011;1102;49.718;11.902;2022-11-30T05:34:43;40.20;;;23.87;;
2191;SDS011;1102;49.718;11.902;2022-11-30T05:37:17;41.60;;;22.77;;
2191;SDS011;1102;49.718;11.902;2022-11-30T05:39:44;39.37;;;23.93;;
2191;SDS011;1102;49.718;11.902;2022-11-30T05:42:11;37.77;;;23.90;;
2191;SDS011;1102;49.718;11.902;2022-11-30T05:44:37;37.33;;;21.03;;
2191;SDS011;1102;49.718;11.902;2022-11-30T05:47:04;39.30;;;21.80;;
2191;SDS011;1102;49.718;11.902;2022-11-30T05:49:31;42.60;;;23.67;;
2191;SDS011;1102;49.718;11.902;2022-11-30T05:51:57;37.80;;;22.00;;
2191;SDS011;1102;49.718;11.902;2022-11-30T05:54:24;32.10;;;20.50;;
2191;SDS011;1102;49.718;11.902;2022-11-30T05:56:51;32.63;;;19.53;;
2191;SDS011;1102;49.718;11.902;2022-11-30T05:59:20;32.23;;;20.10;;
2191;SDS011;1102;49.718;11.902;2022-11-30T06:01:47;38.83;;;22.77;;
2191;SDS011;1102;49.718;11.902;2022-11-30T06:04:17;35.77;;;22.10;;
2191;SDS011;1102;49.718;11.902;2022-11-30T06:06:43;43.30;;;22.27;;
2191;SDS011;1102;49.718;11.902;2022-11-30T06:09:10;41.37;;;22.50;;
2191;SDS011;1102;49.718;11.902;2022-11-30T06:11:37;42.57;;;23.53;;
2191;SDS011;1102;49.718;11.902;2022-11-30T06:14:03;33.00;;;21.37;;
2191;SDS011;1102;49.718;11.902;2022-11-30T06:16:30;32.23;;;20.23;;
2191;SDS011;1102;49.718;11.902;2022-11-30T06:18:57;33.03;;;20.17;;
2191;SDS011;1102;49.718;11.902;2022-11-30T06:21:23;33.10;;;20.10;;
2191;SDS011;1102;49.718;11.902;2022-11-30T06:23:50;43.20;;;20.33;;
2191;SDS011;1102;49.718;11.902;2022-11-30T06:26:17;32.93;;;19.43;;
2191;SDS011;1102;49.718;11.902;2022-11-30T06:28:44;35.47;;;20.20;;
2191;SDS011;1102;49.718;11.902;2022-11-30T06:31:14;35.87;;;22.07;;
2191;SDS011;1102;49.718;11.902;2022-11-30T06:33:42;39.73;;;23.50;;
2191;SDS011;1102;49.718;11.902;2022-11-30T06:36:08;35.60;;;21.77;;
2191;SDS011;1102;49.718;11.902;2022-11-30T06:38:35;33.10;;;21.70;;
2191;SDS011;1102;49.718;11.902;2022-11-30T06:41:06;32.73;;;22.10;;
2191;SDS011;1102;49.718;11.902;2022-11-30T06:43:34;36.60;;;23.03;;
2191;SDS011;1102;49.718;11.902;2022-11-30T06:46:02;35.33;;;22.30;;
2191;SDS011;1102;49.718;11.902;2022-11-30T06:48:30;41.20;;;23.30;;
2191;SDS011;1102;49.718;11.902;2022-11-30T06:50:57;38.37;;;21.80;;
2191;SDS011;1102;49.718;11.902;2022-11-30T06:53:24;37.60;;;21.13;;
2191;SDS011;1102;49.718;11.902;2022-11-30T06:55:51;34.60;;;21.37;;
2191;SDS011;1102;49.718;11.902;2022-11-30T06:58:18;34.50;;;22.47;;
2191;SDS011;1102;49.718;11.902;2022-11-30T07:00:45;32.40;;;23.17;;
2191;SDS011;1102;49.718;11.902;2022-11-30T07:03:12;36.63;;;22.40;;
2191;SDS011;1102;49.718;11.902;2022-11-30T07:05:40;34.70;;;22.53;;
2191;SDS011;1102;49.718;11.902;2022-11-30T07:08:09;36.13;;;22.17;;
2191;SDS011;1102;49.718;11.902;2022-11-30T07:10:40;42.43;;;23.47;;
2191;SDS011;1102;49.718;11.902;2022-11-30T07:13:09;36.87;;;23.40;;
2191;SDS011;1102;49.718;11.902;2022-11-30T07:15:37;37.87;;;23.50;;
2191;SDS011;1102;49.718;11.902;2022-11-30T07:18:05;36.93;;;22.60;;
2191;SDS011;1102;49.718;11.902;2022-11-30T07:20:32;35.83;;;23.70;;
2191;SDS011;1102;49.718;11.902;2022-11-30T07:23:00;40.80;;;22.57;;
2191;SDS011;1102;49.718;11.902;2022-11-30T07:25:45;38.83;;;22.60;;
2191;SDS011;1102;49.718;11.902;2022-11-30T07:28:31;43.33;;;24.40;;
2191;SDS011;1102;49.718;11.902;2022-11-30T07:30:58;37.50;;;21.93;;
2191;SDS011;1102;49.718;11.902;2022-11-30T07:33:25;35.43;;;22.03;;
2191;SDS011;1102;49.718;11.902;2022-11-30T07:35:52;38.30;;;22.60;;
2191;SDS011;1102;49.718;11.902;2022-11-30T07:38:19;46.20;;;24.47;;
2191;SDS011;1102;49.718;11.902;2022-11-30T07:40:46;41.90;;;23.33;;
2191;SDS011;1102;49.718;11.902;2022-11-30T07:43:12;38.57;;;23.60;;
2191;SDS011;1102;49.718;11.902;2022-11-30T07:45:39;40.20;;;24.00;;
2191;SDS011;1102;49.718;11.902;2022-11-30T07:48:06;37.47;;;23.77;;
2191;SDS011;1102;49.718;11.902;2022-11-30T07:50:33;41.97;;;25.60;;
2191;SDS011;1102;49.718;11.902;2022-11-30T07:52:59;44.50;;;25.37;;
2191;SDS011;1102;49.718;11.902;2022-11-30T07:55:26;48.47;;;22.93;;
2191;SDS011;1102;49.718;11.902;2022-11-30T07:57:53;36.97;;;24.23;;
2191;SDS011;1102;49.718;11.902;2022-11-30T08:00:19;38.00;;;23.77;;
2191;SDS011;1102;49.718;11.902;2022-11-30T08:02:48;40.50;;;25.40;;
2191;SDS011;1102;49.718;11.902;2022-11-30T08:05:15;43.10;;;25.00;;
2191;SDS011;1102;49.718;11.902;2022-11-30T08:07:42;35.57;;;23.13;;
2191;SDS011;1102;49.718;11.902;2022-11-30T08:10:11;43.37;;;25.00;;
2191;SDS011;1102;49.718;11.902;2022-11-30T08:12:37;43.80;;;24.93;;
2191;SDS011;1102;49.718;11.902;2022-11-30T08:15:04;45.50;;;24.77;;
2191;SDS011;1102;49.718;11.902;2022-11-30T08:17:52;38.00;;;22.90;;
2191;SDS011;1102;49.718;11.902;2022-11-30T08:20:20;39.53;;;22.33;;
2191;SDS011;1102;49.718;11.902;2022-11-30T08:22:47;37.13;;;22.83;;
2191;SDS011;1102;49.718;11.902;2022-11-30T08:25:14;37.83;;;22.67;;
2191;SDS011;1102;49.718;11.902;2022-11-30T08:27:41;37.03;;;22.87;;
2191;SDS011;1102;49.718;11.902;2022-11-30T08:30:08;42.00;;;22.73;;
2191;SDS011;1102;49.718;11.902;2022-11-30T08:32:35;34.63;;;22.03;;
2191;SDS011;1102;49.718;11.902;2022-11-30T08:35:01;41.83;;;23.00;;
2191;SDS011;1102;49.718;11.902;2022-11-30T08:37:28;34.57;;;22.90;;
2191;SDS011;1102;49.718;11.902;2022-11-30T08:39:55;32.00;;;22.47;;
2191;SDS011;1102;49.718;11.902;2022-11-30T08:42:21;37.93;;;19.83;;
2191;SDS011;1102;49.718;11.902;2022-11-30T08:44:48;35.33;;;22.53;;
2191;SDS011;1102;49.718;11.902;2022-11-30T08:47:14;33.23;;;19.10;;
2191;SDS011;1102;49.718;11.902;2022-11-30T08:49:41;37.30;;;21.90;;
2191;SDS011;1102;49.718;11.902;2022-11-30T08:52:08;30.83;;;20.27;;
2191;SDS011;1102;49.718;11.902;2022-11-30T08:54:44;29.97;;;20.20;;
2191;SDS011;1102;49.718;11.902;2022-11-30T08:57:17;27.53;;;18.50;;
2191;SDS011;1102;49.718;11.902;2022-11-30T08:59:45;30.87;;;19.33;;
2191;SDS011;1102;49.718;11.902;2022-11-30T09:02:13;33.20;;;19.80;;
2191;SDS011;1102;49.718;11.902;2022-11-30T09:04:43;29.23;;;18.70;;
2191;SDS011;1102;49.718;11.902;2022-11-30T09:07:10;25.70;;;16.77;;
2191;SDS011;1102;49.718;11.902;2022-11-30T09:09:37;35.73;;;19.20;;
2191;SDS011;1102;49.718;11.902;2022-11-30T09:12:05;32.77;;;19.47;;
2191;SDS011;1102;49.718;11.902;2022-11-30T09:14:32;25.47;;;17.40;;
2191;SDS011;1102;49.718;11.902;2022-11-30T09:16:59;32.03;;;17.53;;
2191;SDS011;1102;49.718;11.902;2022-11-30T09:19:25;27.20;;;18.57;;
2191;SDS011;1102;49.718;11.902;2022-11-30T09:21:53;28.93;;;17.93;;
2191;SDS011;1102;49.718;11.902;2022-11-30T09:24:19;26.87;;;19.97;;
2191;SDS011;1102;49.718;11.902;2022-11-30T09:26:46;26.13;;;17.93;;
2191;SDS011;1102;49.718;11.902;2022-11-30T09:29:13;29.37;;;19.63;;
2191;SDS011;1102;49.718;11.902;2022-11-30T09:31:40;32.47;;;20.80;;
2191;SDS011;1102;49.718;11.902;2022-11-30T09:34:08;26.90;;;17.90;;
2191;SDS011;1102;49.718;11.902;2022-11-30T09:36:36;30.27;;;21.87;;
2191;SDS011;1102;49.718;11.902;2022-11-30T09:39:03;31.60;;;21.97;;
2191;SDS011;1102;49.718;11.902;2022-11-30T09:41:37;32.53;;;19.30;;
2191;SDS011;1102;49.718;11.902;2022-11-30T09:44:27;30.00;;;19.23;;
2191;SDS011;1102;49.718;11.902;2022-11-30T09:47:24;27.97;;;18.97;;
2191;SDS011;1102;49.718;11.902;2022-11-30T09:49:55;26.63;;;19.80;;
2191;SDS011;1102;49.718;11.902;2022-11-30T09:52:33;30.70;;;18.03;;
2191;SDS011;1102;49.718;11.902;2022-11-30T09:55:06;29.90;;;20.03;;
2191;SDS011;1102;49.718;11.902;2022-11-30T10:00:09;29.27;;;19.00;;
2191;SDS011;1102;49.718;11.902;2022-11-30T10:02:40;30.67;;;20.60;;
2191;SDS011;1102;49.718;11.902;2022-11-30T10:05:11;24.03;;;17.50;;
2191;SDS011;1102;49.718;11.902;2022-11-30T10:10:40;31.77;;;19.23;;
2191;SDS011;1102;49.718;11.902;2022-11-30T10:26:44;28.63;;;18.77;;
2191;SDS011;1102;49.718;11.902;2022-11-30T10:29:29;26.00;;;17.10;;
2191;SDS011;1102;49.718;11.902;2022-11-30T10:32:02;31.40;;;18.67;;
2191;SDS011;1102;49.718;11.902;2022-11-30T10:34:38;30.10;;;19.20;;
2191;SDS011;1102;49.718;11.902;2022-11-30T10:37:12;27.57;;;18.90;;
2191;SDS011;1102;49.718;11.902;2022-11-30T10:42:45;28.87;;;18.93;;
2191;SDS011;1102;49.718;11.902;2022-11-30T10:45:16;28.40;;;20.97;;
2191;SDS011;1102;49.718;11.902;2022-11-30T10:47:55;27.90;;;18.83;;
2191;SDS011;1102;49.718;11.902;2022-11-30T10:50:29;33.67;;;19.27;;
2191;SDS011;1102;49.718;11.902;2022-11-30T10:52:56;25.63;;;17.47;;
2191;SDS011;1102;49.718;11.902;2022-11-30T10:55:26;24.43;;;18.50;;
2191;SDS011;1102;49.718;11.902;2022-11-30T10:58:01;29.00;;;17.70;;
2191;SDS011;1102;49.718;11.902;2022-11-30T11:00:32;29.67;;;18.90;;
2191;SDS011;1102;49.718;11.902;2022-11-30T11:02:59;26.17;;;18.90;;
2191;SDS011;1102;49.718;11.902;2022-11-30T11:05:26;26.07;;;17.80;;
2191;SDS011;1102;49.718;11.902;2022-11-30T11:07:59;26.53;;;17.60;;
2191;SDS011;1102;49.718;11.902;2022-11-30T11:10:33;25.50;;;19.10;;
2191;SDS011;1102;49.718;11.902;2022-11-30T11:13:18;25.33;;;17.20;;
2191;SDS011;1102;49.718;11.902;2022-11-30T11:16:00;26.47;;;18.67;;
2191;SDS011;1102;49.718;11.902;2022-11-30T11:18:29;24.60;;;17.53;;
2191;SDS011;1102;49.718;11.902;2022-11-30T11:21:01;31.07;;;21.83;;
2191;SDS011;1102;49.718;11.902;2022-11-30T11:23:33;29.53;;;16.77;;
2191;SDS011;1102;49.718;11.902;2022-11-30T11:26:14;27.30;;;17.57;;
2191;SDS011;1102;49.718;11.902;2022-11-30T11:28:45;20.30;;;16.83;;
2191;SDS011;1102;49.718;11.902;2022-11-30T11:31:31;25.30;;;18.03;;
2191;SDS011;1102;49.718;11.902;2022-11-30T11:34:02;27.13;;;18.83;;
2191;SDS011;1102;49.718;11.902;2022-11-30T11:36:31;25.70;;;18.33;;
2191;SDS011;1102;49.718;11.902;2022-11-30T11:38:59;25.70;;;17.50;;
2191;SDS011;1102;49.718;11.902;2022-11-30T11:43:58;23.70;;;16.67;;
2191;SDS011;1102;49.718;11.902;2022-11-30T11:46:51;20.33;;;15.57;;
2191;SDS011;1102;49.718;11.902;2022-11-30T11:49:25;29.17;;;18.27;;
2191;SDS011;1102;49.718;11.902;2022-11-30T11:57:24;22.70;;;15.27;;
2191;SDS011;1102;49.718;11.902;2022-11-30T12:00:05;21.27;;;15.90;;
2191;SDS011;1102;49.718;11.902;2022-11-30T12:05:39;26.70;;;17.27;;
2191;SDS011;1102;49.718;11.902;2022-11-30T12:08:12;22.90;;;16.60;;
2191;SDS011;1102;49.718;11.902;2022-11-30T12:13:19;22.00;;;14.83;;
2191;SDS011;1102;49.718;11.902;2022-11-30T12:15:51;20.10;;;16.70;;
2191;SDS011;1102;49.718;11.902;2022-11-30T12:18:35;23.30;;;16.50;;
2191;SDS011;1102;49.718;11.902;2022-11-30T12:28:58;22.30;;;17.07;;
2191;SDS011;1102;49.718;11.902;2022-11-30T12:32:04;21.77;;;16.17;;
2191;SDS011;1102;49.718;11.902;2022-11-30T12:50:40;29.10;;;17.30;;
2191;SDS011;1102;49.718;11.902;2022-11-30T12:53:25;28.60;;;18.40;;
2191;SDS011;1102;49.718;11.902;2022-11-30T12:59:01;24.17;;;17.90;;
2191;SDS011;1102;49.718;11.902;2022-11-30T13:04:27;25.83;;;18.07;;
2191;SDS011;1102;49.718;11.902;2022-11-30T13:07:02;20.50;;;15.13;;
2191;SDS011;1102;49.718;11.902;2022-11-30T13:09:40;31.53;;;16.37;;
2191;SDS011;1102;49.718;11.902;2022-11-30T13:12:15;24.40;;;16.17;;
2191;SDS011;1102;49.718;11.902;2022-11-30T13:15:05;20.83;;;16.50;;
2191;SDS011;1102;49.718;11.902;2022-11-30T13:17:43;22.90;;;16.10;;
2191;SDS011;1102;49.718;11.902;2022-11-30T13:20:22;25.30;;;15.70;;
2191;SDS011;1102;49.718;11.902;2022-11-30T13:26:02;24.00;;;17.70;;
2191;SDS011;1102;49.718;11.902;2022-11-30T13:28:56;25.53;;;16.40;;
2191;SDS011;1102;49.718;11.902;2022-11-30T13:31:32;21.03;;;17.13;;
2191;SDS011;1102;49.718;11.902;2022-11-30T13:34:10;25.57;;;16.20;;
2191;SDS011;1102;49.718;11.902;2022-11-30T13:36:48;23.53;;;17.13;;
2191;SDS011;1102;49.718;11.902;2022-11-30T13:39:25;24.57;;;17.57;;
2191;SDS011;1102;49.718;11.902;2022-11-30T13:44:30;21.90;;;16.90;;
2191;SDS011;1102;49.718;11.902;2022-11-30T13:47:01;25.93;;;16.53;;
2191;SDS011;1102;49.718;11.902;2022-11-30T13:49:31;24.47;;;17.57;;
2191;SDS011;1102;49.718;11.902;2022-11-30T13:52:01;24.03;;;18.47;;
2191;SDS011;1102;49.718;11.902;2022-11-30T13:54:49;20.13;;;15.67;;
2191;SDS011;1102;49.718;11.902;2022-11-30T13:59:50;25.93;;;18.20;;
2191;SDS011;1102;49.718;11.902;2022-11-30T14:20:35;27.20;;;17.40;;
2191;SDS011;1102;49.718;11.902;2022-11-30T14:23:17;20.47;;;16.47;;
2191;SDS011;1102;49.718;11.902;2022-11-30T14:25:47;24.67;;;18.30;;
2191;SDS011;1102;49.718;11.902;2022-11-30T14:28:34;24.70;;;18.20;;
2191;SDS011;1102;49.718;11.902;2022-11-30T14:31:15;24.80;;;17.17;;
2191;SDS011;1102;49.718;11.902;2022-11-30T14:33:50;26.70;;;17.27;;
2191;SDS011;1102;49.718;11.902;2022-11-30T14:36:19;21.43;;;15.43;;
2191;SDS011;1102;49.718;11.902;2022-11-30T14:38:48;25.17;;;17.20;;
2191;SDS011;1102;49.718;11.902;2022-11-30T14:41:18;25.27;;;17.50;;
2191;SDS011;1102;49.718;11.902;2022-11-30T14:46:24;23.53;;;16.13;;
2191;SDS011;1102;49.718;11.902;2022-11-30T14:49:11;24.23;;;17.27;;
2191;SDS011;1102;49.718;11.902;2022-11-30T14:51:45;21.67;;;16.30;;
2191;SDS011;1102;49.718;11.902;2022-11-30T14:54:21;20.10;;;15.73;;
2191;SDS011;1102;49.718;11.902;2022-11-30T14:56:52;23.07;;;16.63;;
2191;SDS011;1102;49.718;11.902;2022-11-30T15:01:59;23.07;;;16.77;;
2191;SDS011;1102;49.718;11.902;2022-11-30T15:04:28;24.20;;;16.17;;
2191;SDS011;1102;49.718;11.902;2022-11-30T15:06:56;27.13;;;17.93;;
2191;SDS011;1102;49.718;11.902;2022-11-30T15:09:27;26.03;;;17.70;;
2191;SDS011;1102;49.718;11.902;2022-11-30T15:11:56;24.30;;;16.60;;
2191;SDS011;1102;49.718;11.902;2022-11-30T15:14:23;27.47;;;19.60;;
2191;SDS011;1102;49.718;11.902;2022-11-30T15:16:51;29.73;;;20.47;;
2191;SDS011;1102;49.718;11.902;2022-11-30T15:21:53;22.57;;;14.90;;
2191;SDS011;1102;49.718;11.902;2022-11-30T15:24:21;22.93;;;17.10;;
2191;SDS011;1102;49.718;11.902;2022-11-30T15:26:55;29.37;;;19.03;;
2191;SDS011;1102;49.718;11.902;2022-11-30T15:29:36;25.20;;;17.77;;
2191;SDS011;1102;49.718;11.902;2022-11-30T15:32:13;32.53;;;19.70;;
2191;SDS011;1102;49.718;11.902;2022-11-30T15:37:34;40.60;;;26.07;;
2191;SDS011;1102;49.718;11.902;2022-11-30T15:40:06;26.00;;;18.73;;
2191;SDS011;1102;49.718;11.902;2022-11-30T15:42:36;28.10;;;18.90;;
2191;SDS011;1102;49.718;11.902;2022-11-30T15:45:14;31.40;;;21.57;;
2191;SDS011;1102;49.718;11.902;2022-11-30T15:47:43;26.67;;;19.10;;
2191;SDS011;1102;49.718;11.902;2022-11-30T15:52:52;26.13;;;21.00;;
2191;SDS011;1102;49.718;11.902;2022-11-30T15:55:40;27.37;;;17.37;;
2191;SDS011;1102;49.718;11.902;2022-11-30T16:01:09;25.40;;;19.00;;
2191;SDS011;1102;49.718;11.902;2022-11-30T16:06:25;31.20;;;20.23;;
2191;SDS011;1102;49.718;11.902;2022-11-30T16:08:58;28.10;;;18.97;;
2191;SDS011;1102;49.718;11.902;2022-11-30T16:11:29;27.10;;;19.97;;
2191;SDS011;1102;49.718;11.902;2022-11-30T16:13:56;29.50;;;19.30;;
2191;SDS011;1102;49.718;11.902;2022-11-30T16:16:24;24.00;;;17.57;;
2191;SDS011;1102;49.718;11.902;2022-11-30T16:18:53;27.10;;;18.67;;
2191;SDS011;1102;49.718;11.902;2022-11-30T16:21:20;31.67;;;20.80;;
2191;SDS011;1102;49.718;11.902;2022-11-30T16:23:47;29.37;;;18.23;;
2191;SDS011;1102;49.718;11.902;2022-11-30T16:26:15;25.83;;;18.50;;
2191;SDS011;1102;49.718;11.902;2022-11-30T16:29:02;22.50;;;17.33;;
2191;SDS011;1102;49.718;11.902;2022-11-30T16:31:29;27.23;;;17.80;;
2191;SDS011;1102;49.718;11.902;2022-11-30T16:33:56;24.30;;;16.50;;
2191;SDS011;1102;49.718;11.902;2022-11-30T16:36:23;22.50;;;18.00;;
2191;SDS011;1102;49.718;11.902;2022-11-30T16:38:50;24.73;;;15.77;;
2191;SDS011;1102;49.718;11.902;2022-11-30T16:41:19;25.20;;;18.37;;
2191;SDS011;1102;49.718;11.902;2022-11-30T16:43:48;26.10;;;17.10;;
2191;SDS011;1102;49.718;11.902;2022-11-30T16:46:17;27.90;;;19.00;;
2191;SDS011;1102;49.718;11.902;2022-11-30T16:48:48;24.30;;;17.73;;
2191;SDS011;1102;49.718;11.902;2022-11-30T16:51:16;21.43;;;15.97;;
2191;SDS011;1102;49.718;11.902;2022-11-30T16:53:49;26.80;;;17.00;;
2191;SDS011;1102;49.718;11.902;2022-11-30T16:56:16;19.87;;;15.90;;
2191;SDS011;1102;49.718;11.902;2022-11-30T16:58:43;26.87;;;18.27;;